createdAt,value
2022-09-10T00:01:21.926Z,6.97
2022-09-10T00:03:50.099Z,5.18
2022-09-10T00:06:18.584Z,6.70
2022-09-10T00:08:47.465Z,5.05
2022-09-10T00:11:15.633Z,4.97
2022-09-10T00:13:44.055Z,6.30
2022-09-10T00:16:15.260Z,9.48
2022-09-10T00:18:43.717Z,5.82
2022-09-10T00:21:13.311Z,7.38
2022-09-10T00:23:45.485Z,7.55
2022-09-10T00:26:16.982Z,4.88
2022-09-10T00:28:44.891Z,5.40
2022-09-10T00:31:14.424Z,5.32
2022-09-10T00:33:42.702Z,8.35
2022-09-10T00:36:17.921Z,6.05
2022-09-10T00:38:45.773Z,7.38
2022-09-10T00:41:14.256Z,7.20
2022-09-10T00:43:51.643Z,7.93
2022-09-10T00:46:32.525Z,6.95
2022-09-10T00:49:02.992Z,9.10
2022-09-10T00:51:33.909Z,6.35
2022-09-10T00:54:02.923Z,5.30
2022-09-10T00:56:30.955Z,4.68
2022-09-10T00:58:58.868Z,6.45
2022-09-10T01:01:27.880Z,5.90
2022-09-10T01:03:56.682Z,4.65
2022-09-10T01:06:24.956Z,4.38
2022-09-10T01:08:52.466Z,5.53
2022-09-10T01:11:42.682Z,3.75
2022-09-10T01:14:40.624Z,4.57
2022-09-10T01:17:18.266Z,6.78
2022-09-10T01:20:09.290Z,4.25
2022-09-10T01:22:54.916Z,4.78
2022-09-10T01:25:32.201Z,5.45
2022-09-10T01:28:07.008Z,3.95
2022-09-10T01:30:41.176Z,3.83
2022-09-10T01:33:15.972Z,3.22
2022-09-10T01:35:49.469Z,3.97
2022-09-10T01:38:22.633Z,4.50
2022-09-10T01:40:53.983Z,4.40
2022-09-10T01:43:24.779Z,5.32
2022-09-10T01:46:10.532Z,7.03
2022-09-10T01:49:04.861Z,3.53
2022-09-10T01:51:42.732Z,4.53
2022-09-10T01:54:25.407Z,5.68
2022-09-10T01:57:07.114Z,4.25
2022-09-10T01:59:44.637Z,6.32
2022-09-10T02:02:17.769Z,3.47
2022-09-10T02:04:47.878Z,3.63
2022-09-10T02:07:18.422Z,3.40
2022-09-10T02:09:46.867Z,3.50
2022-09-10T02:12:19.720Z,2.90
2022-09-10T02:14:55.111Z,5.07
2022-09-10T02:17:31.547Z,3.67
2022-09-10T02:20:02.110Z,4.97
2022-09-10T02:22:31.797Z,3.22
2022-09-10T02:24:59.543Z,6.20
2022-09-10T02:27:29.988Z,3.47
2022-09-10T02:29:59.245Z,3.15
2022-09-10T02:32:26.810Z,3.55
2022-09-10T02:34:54.455Z,3.83
2022-09-10T02:37:21.946Z,4.85
2022-09-10T02:39:49.692Z,3.97
2022-09-10T02:42:18.111Z,3.58
2022-09-10T02:44:47.807Z,4.65
2022-09-10T02:47:16.776Z,4.75
2022-09-10T02:49:45.772Z,5.43
2022-09-10T02:52:13.736Z,3.88
2022-09-10T02:54:41.357Z,3.95
2022-09-10T02:57:12.183Z,3.80
2022-09-10T02:59:39.881Z,3.80
2022-09-10T03:02:09.712Z,4.70
2022-09-10T03:04:40.471Z,3.47
2022-09-10T03:07:08.629Z,4.32
2022-09-10T03:09:36.238Z,3.65
2022-09-10T03:12:04.031Z,3.78
2022-09-10T03:14:32.695Z,3.92
2022-09-10T03:17:02.956Z,3.20
2022-09-10T03:19:31.333Z,4.65
2022-09-10T03:22:01.223Z,3.33
2022-09-10T03:24:29.397Z,4.32
2022-09-10T03:26:57.086Z,3.50
2022-09-10T03:29:24.801Z,3.83
2022-09-10T03:31:53.059Z,4.38
2022-09-10T03:34:21.975Z,4.28
2022-09-10T03:36:50.908Z,3.25
2022-09-10T03:39:19.857Z,4.60
2022-09-10T03:41:48.799Z,4.30
2022-09-10T03:44:17.253Z,4.13
2022-09-10T03:46:45.509Z,4.35
2022-09-10T03:49:15.271Z,3.50
2022-09-10T03:51:43.134Z,3.80
2022-09-10T03:54:10.848Z,4.95
2022-09-10T03:56:41.459Z,4.10
2022-09-10T03:59:09.579Z,5.20
2022-09-10T04:01:37.950Z,3.88
2022-09-10T04:04:08.313Z,5.28
2022-09-10T04:06:37.163Z,4.22
2022-09-10T04:09:05.319Z,3.85
2022-09-10T04:11:33.202Z,3.92
2022-09-10T04:14:02.173Z,4.10
2022-09-10T04:16:32.226Z,5.50
2022-09-10T04:18:59.967Z,6.60
2022-09-10T04:21:28.641Z,4.32
2022-09-10T04:23:59.219Z,5.78
2022-09-10T04:26:27.161Z,4.57
2022-09-10T04:28:55.761Z,4.20
2022-09-10T04:31:24.625Z,4.53
2022-09-10T04:33:55.885Z,4.68
2022-09-10T04:36:26.345Z,5.55
2022-09-10T04:38:54.238Z,6.70
2022-09-10T04:41:21.847Z,5.40
2022-09-10T04:43:50.458Z,7.30
2022-09-10T04:46:18.517Z,6.10
2022-09-10T04:48:51.278Z,6.75
2022-09-10T04:51:22.469Z,8.57
2022-09-10T04:53:53.026Z,5.15
2022-09-10T04:56:23.378Z,6.18
2022-09-10T04:58:51.713Z,5.03
2022-09-10T05:01:22.561Z,4.50
2022-09-10T05:03:54.350Z,10.20
2022-09-10T05:06:23.242Z,4.82
2022-09-10T05:08:51.366Z,5.45
2022-09-10T05:11:20.038Z,5.88
2022-09-10T05:13:48.383Z,4.75
2022-09-10T05:16:21.245Z,4.78
2022-09-10T05:18:49.069Z,4.47
2022-09-10T05:21:18.486Z,6.18
2022-09-10T05:23:46.505Z,4.95
2022-09-10T05:26:14.082Z,7.20
2022-09-10T05:28:42.542Z,5.00
2022-09-10T05:31:12.884Z,6.22
2022-09-10T05:33:41.585Z,5.80
2022-09-10T05:36:11.549Z,6.95
2022-09-10T05:38:42.280Z,4.75
2022-09-10T05:41:10.656Z,5.45
2022-09-10T05:43:41.977Z,5.75
2022-09-10T05:46:10.902Z,6.32
2022-09-10T05:48:41.717Z,7.47
2022-09-10T05:51:11.183Z,6.05
2022-09-10T05:53:41.391Z,6.03
2022-09-10T05:56:10.295Z,4.78
2022-09-10T05:58:39.506Z,4.85
2022-09-10T06:01:08.657Z,5.05
2022-09-10T06:03:36.256Z,5.63
2022-09-10T06:06:03.851Z,6.75
2022-09-10T06:08:37.174Z,5.97
2022-09-10T06:11:13.329Z,5.05
2022-09-10T06:13:45.250Z,4.32
2022-09-10T06:16:13.745Z,8.00
2022-09-10T06:18:42.416Z,7.35
2022-09-10T06:21:14.229Z,6.80
2022-09-10T06:23:43.462Z,6.00
2022-09-10T06:26:14.678Z,5.15
2022-09-10T06:28:43.238Z,5.38
2022-09-10T06:31:14.189Z,4.97
2022-09-10T06:33:42.543Z,6.82
2022-09-10T06:36:11.102Z,7.82
2022-09-10T06:38:38.845Z,5.80
2022-09-10T06:41:08.980Z,5.20
2022-09-10T06:43:43.167Z,6.43
2022-09-10T06:46:56.854Z,7.78
2022-09-10T06:49:12.281Z,5.47
2022-09-10T06:51:42.748Z,5.47
2022-09-10T06:54:11.616Z,7.03
2022-09-10T06:56:40.262Z,6.13
2022-09-10T06:59:09.799Z,4.80
2022-09-10T07:01:43.982Z,7.53
2022-09-10T07:04:11.820Z,6.20
2022-09-10T07:06:39.727Z,7.90
2022-09-10T07:09:11.275Z,5.38
2022-09-10T07:11:50.529Z,5.68
2022-09-10T07:14:20.675Z,7.00
2022-09-10T07:16:50.200Z,7.20
2022-09-10T07:19:18.702Z,5.15
2022-09-10T07:21:48.335Z,6.30
2022-09-10T07:24:17.180Z,5.40
2022-09-10T07:26:59.392Z,7.03
2022-09-10T07:29:31.240Z,6.60
2022-09-10T07:32:00.006Z,7.35
2022-09-10T07:34:28.058Z,8.85
2022-09-10T07:36:56.712Z,6.10
2022-09-10T07:39:25.843Z,6.75
2022-09-10T07:41:54.346Z,7.70
2022-09-10T07:44:26.616Z,5.90
2022-09-10T07:46:59.133Z,6.38
2022-09-10T07:49:27.991Z,8.05
2022-09-10T07:51:59.801Z,6.30
2022-09-10T07:54:32.068Z,7.07
2022-09-10T07:57:00.922Z,8.50
2022-09-10T07:59:28.946Z,7.28
2022-09-10T08:02:04.603Z,6.25
2022-09-10T08:04:37.119Z,7.47
2022-09-10T08:07:08.477Z,6.35
2022-09-10T08:09:38.652Z,8.90
2022-09-10T08:12:08.770Z,10.75
2022-09-10T08:14:37.936Z,7.78
2022-09-10T08:17:06.933Z,8.95
2022-09-10T08:19:39.716Z,9.80
2022-09-10T08:22:11.499Z,10.55
2022-09-10T08:24:44.765Z,11.23
2022-09-10T08:27:12.989Z,10.63
2022-09-10T08:29:44.626Z,10.52
2022-09-10T08:32:14.181Z,11.25
2022-09-10T08:34:42.272Z,12.10
2022-09-10T08:37:12.383Z,11.02
2022-09-10T08:39:40.455Z,8.70
2022-09-10T08:42:16.344Z,10.50
2022-09-10T08:44:50.101Z,11.90
2022-09-10T08:47:37.176Z,10.10
2022-09-10T08:50:16.092Z,10.45
2022-09-10T08:52:49.786Z,10.63
2022-09-10T08:55:28.217Z,11.68
2022-09-10T08:57:59.333Z,14.05
2022-09-10T09:00:29.908Z,13.50
2022-09-10T09:03:03.624Z,13.48
2022-09-10T09:05:41.727Z,11.85
2022-09-10T09:08:13.431Z,11.93
2022-09-10T09:10:49.155Z,11.13
2022-09-10T09:13:47.797Z,12.23
2022-09-10T09:16:28.753Z,12.38
2022-09-10T09:19:05.995Z,11.30
2022-09-10T09:21:43.370Z,13.60
2022-09-10T09:24:22.224Z,12.68
2022-09-10T09:26:57.528Z,10.75
2022-09-10T09:29:32.300Z,12.85
2022-09-10T09:32:06.264Z,12.68
2022-09-10T09:34:40.882Z,15.23
2022-09-10T09:37:18.223Z,16.35
2022-09-10T09:39:54.374Z,12.85
2022-09-10T09:42:29.955Z,14.70
2022-09-10T09:45:07.488Z,15.48
2022-09-10T09:47:36.855Z,16.20
2022-09-10T09:50:06.768Z,14.85
2022-09-10T09:52:35.721Z,15.85
2022-09-10T09:55:15.398Z,14.90
2022-09-10T09:57:43.733Z,13.57
2022-09-10T10:00:36.051Z,14.85
2022-09-10T10:03:16.867Z,17.85
2022-09-10T10:05:46.763Z,18.95
2022-09-10T10:08:30.770Z,13.73
2022-09-10T10:11:00.803Z,14.48
2022-09-10T10:13:38.154Z,13.68
2022-09-10T10:16:17.122Z,10.95
2022-09-10T10:18:45.226Z,12.75
2022-09-10T10:21:18.717Z,13.10
2022-09-10T10:23:47.511Z,12.70
2022-09-10T10:26:27.587Z,11.52
2022-09-10T10:28:59.690Z,12.88
2022-09-10T10:31:41.126Z,14.25
2022-09-10T10:34:33.594Z,11.52
2022-09-10T10:37:10.474Z,12.80
2022-09-10T10:39:53.678Z,12.13
2022-09-10T10:42:30.657Z,11.55
2022-09-10T10:45:35.062Z,11.02
2022-09-10T10:48:10.344Z,10.55
2022-09-10T10:50:52.675Z,11.70
2022-09-10T10:53:37.167Z,11.13
2022-09-10T10:56:11.613Z,13.20
2022-09-10T10:59:00.225Z,14.52
2022-09-10T11:01:30.752Z,16.48
2022-09-10T11:04:13.490Z,15.38
2022-09-10T11:06:46.761Z,13.48
2022-09-10T11:09:23.755Z,15.52
2022-09-10T11:11:58.830Z,18.17
2022-09-10T11:14:30.901Z,16.88
2022-09-10T11:17:03.049Z,16.17
2022-09-10T11:19:38.555Z,18.00
2022-09-10T11:22:14.463Z,16.65
2022-09-10T11:24:50.074Z,19.27
2022-09-10T11:27:21.420Z,18.27
2022-09-10T11:29:56.621Z,16.40
2022-09-10T11:32:32.401Z,16.83
2022-09-10T11:35:08.483Z,14.73
2022-09-10T11:37:48.292Z,14.70
2022-09-10T11:40:25.280Z,12.02
2022-09-10T11:42:56.491Z,12.13
2022-09-10T11:45:30.297Z,12.60
2022-09-10T11:48:02.821Z,11.65
2022-09-10T11:50:35.050Z,11.60
2022-09-10T11:53:07.299Z,10.65
2022-09-10T11:55:47.436Z,8.82
2022-09-10T11:58:21.242Z,8.20
2022-09-10T12:00:59.414Z,6.05
2022-09-10T12:03:45.365Z,6.03
2022-09-10T12:06:17.573Z,5.15
2022-09-10T12:09:00.744Z,8.48
2022-09-10T12:11:36.762Z,6.03
2022-09-10T12:14:07.559Z,8.57
2022-09-10T12:16:39.893Z,5.68
2022-09-10T12:19:17.211Z,7.25
2022-09-10T12:21:50.812Z,6.72
2022-09-10T12:24:26.866Z,7.18
2022-09-10T12:26:56.732Z,8.68
2022-09-10T12:29:30.438Z,7.85
2022-09-10T12:32:30.845Z,7.82
2022-09-10T12:35:46.752Z,5.90
2022-09-10T12:38:56.016Z,5.97
2022-09-10T12:42:01.201Z,6.65
2022-09-10T12:44:48.720Z,5.95
2022-09-10T12:47:41.955Z,5.28
2022-09-10T12:50:31.735Z,7.60
2022-09-10T12:53:26.381Z,7.88
2022-09-10T12:56:02.264Z,8.30
2022-09-10T12:58:49.941Z,6.93
2022-09-10T13:01:31.294Z,7.85
2022-09-10T13:04:31.400Z,6.53
2022-09-10T13:07:01.546Z,6.20
2022-09-10T13:09:32.776Z,6.03
2022-09-10T13:12:04.641Z,5.75
2022-09-10T13:14:40.588Z,7.82
2022-09-10T13:17:39.861Z,8.73
2022-09-10T13:20:31.181Z,7.30
2022-09-10T13:23:02.251Z,6.43
2022-09-10T13:25:41.493Z,12.45
2022-09-10T13:28:46.604Z,7.68
2022-09-10T13:31:22.427Z,8.38
2022-09-10T13:34:19.421Z,11.93
2022-09-10T13:37:02.690Z,10.48
2022-09-10T13:39:51.004Z,9.85
2022-09-10T13:42:42.354Z,20.58
2022-09-10T13:45:21.801Z,10.50
2022-09-10T13:48:01.098Z,7.90
2022-09-10T13:50:38.738Z,10.35
2022-09-10T13:53:16.373Z,8.45
2022-09-10T13:55:51.464Z,7.80
2022-09-10T13:58:23.251Z,6.85
2022-09-10T14:00:55.863Z,7.30
2022-09-10T14:03:30.108Z,6.13
2022-09-10T14:06:07.767Z,11.27
2022-09-10T14:08:42.295Z,5.30
2022-09-10T14:11:17.796Z,6.07
2022-09-10T14:13:51.789Z,4.38
2022-09-10T14:16:28.320Z,4.10
2022-09-10T14:19:03.279Z,4.93
2022-09-10T14:21:31.832Z,3.95
2022-09-10T14:24:00.274Z,3.92
2022-09-10T14:26:30.047Z,4.25
2022-09-10T14:29:01.233Z,5.40
2022-09-10T14:31:40.031Z,3.40
2022-09-10T14:34:37.051Z,2.60
2022-09-10T14:37:26.906Z,4.25
2022-09-10T14:39:58.465Z,7.78
2022-09-10T14:42:34.170Z,2.38
2022-09-10T14:45:27.032Z,5.90
2022-09-10T14:47:54.900Z,5.05
2022-09-10T14:50:35.151Z,3.03
2022-09-10T14:53:04.186Z,5.03
2022-09-10T14:55:33.958Z,5.72
2022-09-10T14:58:01.757Z,7.63
2022-09-10T15:00:29.981Z,4.03
2022-09-10T15:02:58.462Z,4.95
2022-09-10T15:05:26.104Z,4.53
2022-09-10T15:07:55.079Z,4.53
2022-09-10T15:10:22.633Z,4.82
2022-09-10T15:12:52.811Z,7.50
2022-09-10T15:15:20.444Z,3.97
2022-09-10T15:17:48.209Z,5.20
2022-09-10T15:20:17.701Z,17.35
2022-09-10T15:22:45.965Z,4.50
2022-09-10T15:25:28.248Z,4.68
2022-09-10T15:27:55.967Z,3.63
2022-09-10T15:30:25.663Z,4.22
2022-09-10T15:32:54.417Z,3.20
2022-09-10T15:35:23.015Z,5.90
2022-09-10T15:37:53.273Z,7.05
2022-09-10T15:40:25.664Z,6.63
2022-09-10T15:42:53.255Z,2.50
2022-09-10T15:45:21.194Z,3.33
2022-09-10T15:47:48.963Z,2.65
2022-09-10T15:50:16.721Z,3.28
2022-09-10T15:52:45.083Z,2.72
2022-09-10T15:55:29.232Z,2.83
2022-09-10T15:57:58.458Z,3.58
2022-09-10T16:00:25.982Z,10.05
2022-09-10T16:02:54.541Z,8.00
2022-09-10T16:05:22.600Z,4.43
2022-09-10T16:07:50.372Z,2.65
2022-09-10T16:10:18.161Z,9.13
2022-09-10T16:12:45.876Z,3.47
2022-09-10T16:15:14.803Z,3.53
2022-09-10T16:17:42.490Z,9.63
2022-09-10T16:20:11.114Z,3.25
2022-09-10T16:22:38.995Z,2.55
2022-09-10T16:25:15.305Z,2.88
2022-09-10T16:27:50.416Z,4.32
2022-09-10T16:30:21.139Z,7.35
2022-09-10T16:32:53.309Z,4.75
2022-09-10T16:35:26.656Z,5.22
2022-09-10T16:38:01.744Z,5.50
2022-09-10T16:40:32.473Z,3.15
2022-09-10T16:43:05.456Z,3.00
2022-09-10T16:45:49.709Z,4.25
2022-09-10T16:48:17.703Z,2.72
2022-09-10T16:50:45.514Z,4.03
2022-09-10T16:53:14.105Z,4.13
2022-09-10T16:55:46.297Z,5.10
2022-09-10T16:58:21.189Z,4.70
2022-09-10T17:00:54.525Z,5.28
2022-09-10T17:03:24.181Z,3.50
2022-09-10T17:05:53.981Z,18.17
2022-09-10T17:08:22.145Z,13.32
2022-09-10T17:10:52.767Z,12.20
2022-09-10T17:13:21.147Z,4.18
2022-09-10T17:15:49.096Z,3.67
2022-09-10T17:18:21.287Z,7.70
2022-09-10T17:20:53.533Z,5.93
2022-09-10T17:23:21.452Z,14.40
2022-09-10T17:25:49.143Z,5.95
2022-09-10T17:28:17.175Z,11.32
2022-09-10T17:30:47.228Z,5.45
2022-09-10T17:33:15.484Z,11.13
2022-09-10T17:35:44.470Z,5.70
2022-09-10T17:38:12.243Z,13.48
2022-09-10T17:40:40.036Z,11.63
2022-09-10T17:43:10.187Z,16.88
2022-09-10T17:45:38.103Z,9.20
2022-09-10T17:48:06.023Z,13.50
2022-09-10T17:50:33.556Z,7.65
2022-09-10T17:53:02.741Z,12.25
2022-09-10T17:55:34.416Z,5.63
2022-09-10T17:58:03.220Z,8.40
2022-09-10T18:00:30.972Z,5.75
2022-09-10T18:02:58.828Z,7.22
2022-09-10T18:05:26.978Z,5.95
2022-09-10T18:08:02.671Z,5.53
2022-09-10T18:10:30.575Z,4.43
2022-09-10T18:13:00.334Z,4.50
2022-09-10T18:15:31.551Z,3.60
2022-09-10T18:17:59.936Z,6.07
2022-09-10T18:20:28.794Z,4.18
2022-09-10T18:22:59.723Z,6.70
2022-09-10T18:25:31.860Z,6.20
2022-09-10T18:28:01.357Z,6.50
2022-09-10T18:30:29.667Z,5.10
2022-09-10T18:32:57.549Z,7.35
2022-09-10T18:35:26.182Z,9.05
2022-09-10T18:37:54.225Z,10.15
2022-09-10T18:40:21.911Z,10.50
2022-09-10T18:42:50.907Z,8.27
2022-09-10T18:45:18.600Z,9.13
2022-09-10T18:47:48.413Z,9.13
2022-09-10T18:50:16.141Z,12.02
2022-09-10T18:52:43.632Z,8.40
2022-09-10T18:55:12.187Z,8.70
2022-09-10T18:57:39.759Z,6.50
2022-09-10T19:00:10.523Z,8.00
2022-09-10T19:02:38.155Z,11.52
2022-09-10T19:05:11.633Z,11.13
2022-09-10T19:07:39.810Z,10.60
2022-09-10T19:10:08.834Z,13.93
2022-09-10T19:12:36.581Z,16.13
2022-09-10T19:15:04.606Z,13.18
2022-09-10T19:17:33.576Z,17.55
2022-09-10T19:20:01.114Z,12.85
2022-09-10T19:22:28.861Z,18.92
2022-09-10T19:24:56.563Z,16.40
2022-09-10T19:27:24.778Z,17.20
2022-09-10T19:29:53.280Z,13.70
2022-09-10T19:32:21.009Z,16.08
2022-09-10T19:34:51.307Z,14.48
2022-09-10T19:37:19.464Z,24.70
2022-09-10T19:39:47.606Z,36.15
2022-09-10T19:42:15.328Z,25.50
2022-09-10T19:44:43.498Z,22.35
2022-09-10T19:47:11.106Z,21.52
2022-09-10T19:49:39.067Z,23.95
2022-09-10T19:52:08.231Z,20.65
2022-09-10T19:54:35.892Z,20.45
2022-09-10T19:57:03.645Z,20.33
2022-09-10T19:59:31.364Z,18.02
2022-09-10T20:01:59.150Z,23.08
2022-09-10T20:04:27.779Z,21.88
2022-09-10T20:06:58.307Z,21.88
2022-09-10T20:09:27.490Z,20.70
2022-09-10T20:11:57.180Z,22.00
2022-09-10T20:14:25.378Z,22.08
2022-09-10T20:16:54.662Z,21.50
2022-09-10T20:19:22.476Z,26.02
2022-09-10T20:21:51.657Z,22.75
2022-09-10T20:24:19.300Z,25.05
2022-09-10T20:26:48.931Z,23.83
2022-09-10T20:29:21.287Z,26.27
2022-09-10T20:31:49.247Z,25.83
2022-09-10T20:34:20.684Z,26.38
2022-09-10T20:36:50.711Z,23.63
2022-09-10T20:39:20.329Z,24.63
2022-09-10T20:41:49.542Z,25.92
2022-09-10T20:44:18.170Z,24.27
2022-09-10T20:46:46.213Z,34.85
2022-09-10T20:49:16.135Z,32.08
2022-09-10T20:51:44.366Z,29.08
2022-09-10T20:54:13.856Z,27.63
2022-09-10T20:56:44.146Z,25.02
2022-09-10T20:59:15.576Z,26.92
2022-09-10T21:01:46.304Z,25.67
2022-09-10T21:04:18.397Z,26.40
2022-09-10T21:06:52.577Z,28.33
2022-09-10T21:09:20.293Z,27.50
2022-09-10T21:11:49.418Z,28.33
2022-09-10T21:14:19.158Z,26.42
2022-09-10T21:16:47.374Z,35.55
2022-09-10T21:19:17.318Z,29.67
2022-09-10T21:21:49.593Z,26.30
2022-09-10T21:24:22.682Z,33.88
2022-09-10T21:26:54.020Z,36.00
2022-09-10T21:29:23.289Z,33.90
2022-09-10T21:31:53.207Z,32.97
2022-09-10T21:34:21.215Z,34.97
2022-09-10T21:36:48.848Z,32.88
2022-09-10T21:39:18.198Z,31.25
2022-09-10T21:41:47.360Z,38.03
2022-09-10T21:44:17.586Z,31.38
2022-09-10T21:46:47.348Z,30.90
2022-09-10T21:49:16.105Z,34.50
2022-09-10T21:51:43.978Z,32.38
2022-09-10T21:54:14.960Z,35.65
2022-09-10T21:56:42.653Z,37.95
2022-09-10T21:59:11.697Z,32.10
2022-09-10T22:01:40.197Z,29.58
2022-09-10T22:04:09.166Z,29.58
2022-09-10T22:06:36.885Z,34.10
2022-09-10T22:09:10.181Z,29.30
2022-09-10T22:11:40.611Z,29.83
2022-09-10T22:14:12.443Z,31.20
2022-09-10T22:16:40.684Z,33.78
2022-09-10T22:19:13.144Z,35.42
2022-09-10T22:21:41.341Z,32.70
2022-09-10T22:24:10.703Z,31.73
2022-09-10T22:26:42.481Z,33.92
2022-09-10T22:29:11.702Z,32.70
2022-09-10T22:31:39.688Z,34.78
2022-09-10T22:34:16.210Z,34.10
2022-09-10T22:36:45.337Z,33.10
2022-09-10T22:39:15.479Z,30.25
2022-09-10T22:41:44.134Z,30.25
2022-09-10T22:44:12.183Z,31.23
2022-09-10T22:46:41.063Z,33.88
2022-09-10T22:49:10.781Z,36.85
2022-09-10T22:51:41.623Z,35.22
2022-09-10T22:54:12.657Z,30.27
2022-09-10T22:56:40.529Z,39.45
2022-09-10T22:59:08.579Z,30.60
2022-09-10T23:01:43.936Z,33.45
2022-09-10T23:04:17.785Z,36.47
2022-09-10T23:06:45.563Z,37.42
2022-09-10T23:09:14.558Z,40.35
2022-09-10T23:11:43.989Z,36.47
2022-09-10T23:14:13.797Z,36.15
2022-09-10T23:16:42.759Z,37.03
2022-09-10T23:19:14.052Z,38.30
2022-09-10T23:21:43.934Z,35.58
2022-09-10T23:24:14.065Z,32.38
2022-09-10T23:26:42.167Z,41.40
2022-09-10T23:29:10.221Z,43.88
2022-09-10T23:31:39.748Z,40.25
2022-09-10T23:34:09.841Z,38.33
2022-09-10T23:36:40.690Z,40.38
2022-09-10T23:39:12.019Z,37.92
2022-09-10T23:41:40.825Z,36.42
2022-09-10T23:44:08.807Z,38.20
2022-09-10T23:46:39.902Z,36.80
2022-09-10T23:49:08.830Z,43.45
2022-09-10T23:51:37.113Z,43.35
2022-09-10T23:54:06.212Z,43.60
2022-09-10T23:56:34.337Z,46.03
2022-09-10T23:59:03.452Z,44.60
